sensor_id;sensor_type;location;lat;lon;timestamp;P1;durP1;ratioP1;P2;durP2;ratioP2
24439;SDS011;12618;54.386;18.394;2023-11-19T00:01:34;66.40;;;36.70;;
24439;SDS011;12618;54.386;18.394;2023-11-19T00:04:06;72.40;;;38.80;;
24439;SDS011;12618;54.386;18.394;2023-11-19T00:06:39;74.10;;;39.10;;
24439;SDS011;12618;54.386;18.394;2023-11-19T00:09:11;70.40;;;37.90;;
24439;SDS011;12618;54.386;18.394;2023-11-19T00:11:44;56.30;;;29.40;;
24439;SDS011;12618;54.386;18.394;2023-11-19T00:14:24;69.00;;;35.60;;
24439;SDS011;12618;54.386;18.394;2023-11-19T00:16:57;67.30;;;35.30;;
24439;SDS011;12618;54.386;18.394;2023-11-19T00:19:29;64.10;;;34.90;;
24439;SDS011;12618;54.386;18.394;2023-11-19T00:22:01;69.20;;;35.30;;
24439;SDS011;12618;54.386;18.394;2023-11-19T00:24:34;67.50;;;36.10;;
24439;SDS011;12618;54.386;18.394;2023-11-19T00:27:06;64.50;;;34.60;;
24439;SDS011;12618;54.386;18.394;2023-11-19T00:29:39;61.30;;;33.50;;
24439;SDS011;12618;54.386;18.394;2023-11-19T00:32:11;63.20;;;32.90;;
24439;SDS011;12618;54.386;18.394;2023-11-19T00:34:44;58.10;;;31.10;;
24439;SDS011;12618;54.386;18.394;2023-11-19T00:37:16;56.00;;;29.80;;
24439;SDS011;12618;54.386;18.394;2023-11-19T00:42:24;54.40;;;28.40;;
24439;SDS011;12618;54.386;18.394;2023-11-19T00:44:57;52.70;;;28.50;;
24439;SDS011;12618;54.386;18.394;2023-11-19T00:47:29;54.10;;;29.90;;
24439;SDS011;12618;54.386;18.394;2023-11-19T00:50:02;55.50;;;29.80;;
24439;SDS011;12618;54.386;18.394;2023-11-19T00:52:34;55.10;;;29.80;;
24439;SDS011;12618;54.386;18.394;2023-11-19T00:55:07;59.30;;;31.60;;
24439;SDS011;12618;54.386;18.394;2023-11-19T00:57:39;58.60;;;31.30;;
24439;SDS011;12618;54.386;18.394;2023-11-19T01:00:12;56.20;;;30.20;;
24439;SDS011;12618;54.386;18.394;2023-11-19T01:02:52;57.10;;;30.00;;
24439;SDS011;12618;54.386;18.394;2023-11-19T01:05:24;57.20;;;29.70;;
24439;SDS011;12618;54.386;18.394;2023-11-19T01:07:56;54.40;;;29.70;;
24439;SDS011;12618;54.386;18.394;2023-11-19T01:10:28;59.80;;;31.10;;
24439;SDS011;12618;54.386;18.394;2023-11-19T01:13:00;56.80;;;30.60;;
24439;SDS011;12618;54.386;18.394;2023-11-19T01:15:32;56.10;;;30.80;;
24439;SDS011;12618;54.386;18.394;2023-11-19T01:18:04;56.20;;;30.10;;
24439;SDS011;12618;54.386;18.394;2023-11-19T01:20:36;52.60;;;29.20;;
24439;SDS011;12618;54.386;18.394;2023-11-19T01:23:08;58.80;;;30.30;;
24439;SDS011;12618;54.386;18.394;2023-11-19T01:25:40;57.20;;;29.90;;
24439;SDS011;12618;54.386;18.394;2023-11-19T01:28:11;59.00;;;30.90;;
24439;SDS011;12618;54.386;18.394;2023-11-19T01:30:44;57.40;;;29.00;;
24439;SDS011;12618;54.386;18.394;2023-11-19T01:33:16;57.90;;;31.10;;
24439;SDS011;12618;54.386;18.394;2023-11-19T01:35:49;55.20;;;29.90;;
24439;SDS011;12618;54.386;18.394;2023-11-19T01:38:21;56.40;;;30.30;;
24439;SDS011;12618;54.386;18.394;2023-11-19T01:40:56;52.30;;;29.50;;
24439;SDS011;12618;54.386;18.394;2023-11-19T01:43:35;60.20;;;31.40;;
24439;SDS011;12618;54.386;18.394;2023-11-19T01:46:10;55.80;;;30.30;;
24439;SDS011;12618;54.386;18.394;2023-11-19T01:48:43;55.60;;;31.20;;
24439;SDS011;12618;54.386;18.394;2023-11-19T01:51:16;53.60;;;31.30;;
24439;SDS011;12618;54.386;18.394;2023-11-19T01:53:48;57.40;;;30.90;;
24439;SDS011;12618;54.386;18.394;2023-11-19T01:56:20;52.30;;;28.40;;
24439;SDS011;12618;54.386;18.394;2023-11-19T01:58:53;50.60;;;28.40;;
24439;SDS011;12618;54.386;18.394;2023-11-19T02:01:27;47.70;;;28.50;;
24439;SDS011;12618;54.386;18.394;2023-11-19T02:03:59;47.80;;;26.70;;
24439;SDS011;12618;54.386;18.394;2023-11-19T02:06:31;44.30;;;25.10;;
24439;SDS011;12618;54.386;18.394;2023-11-19T02:09:05;45.20;;;25.40;;
24439;SDS011;12618;54.386;18.394;2023-11-19T02:11:39;40.10;;;24.30;;
24439;SDS011;12618;54.386;18.394;2023-11-19T02:14:12;32.20;;;19.40;;
24439;SDS011;12618;54.386;18.394;2023-11-19T02:16:43;39.50;;;22.80;;
24439;SDS011;12618;54.386;18.394;2023-11-19T02:19:15;39.00;;;23.00;;
24439;SDS011;12618;54.386;18.394;2023-11-19T02:21:47;36.20;;;22.40;;
24439;SDS011;12618;54.386;18.394;2023-11-19T02:24:19;40.50;;;24.30;;
24439;SDS011;12618;54.386;18.394;2023-11-19T02:27:12;35.10;;;22.20;;
24439;SDS011;12618;54.386;18.394;2023-11-19T02:29:52;38.70;;;23.30;;
24439;SDS011;12618;54.386;18.394;2023-11-19T02:36:34;32.80;;;20.30;;
24439;SDS011;12618;54.386;18.394;2023-11-19T02:39:05;34.10;;;20.10;;
24439;SDS011;12618;54.386;18.394;2023-11-19T02:41:41;31.10;;;19.10;;
24439;SDS011;12618;54.386;18.394;2023-11-19T02:44:13;32.10;;;20.00;;
24439;SDS011;12618;54.386;18.394;2023-11-19T02:46:45;33.60;;;20.20;;
24439;SDS011;12618;54.386;18.394;2023-11-19T02:49:18;34.60;;;19.80;;
24439;SDS011;12618;54.386;18.394;2023-11-19T02:51:49;32.50;;;19.70;;
24439;SDS011;12618;54.386;18.394;2023-11-19T02:54:21;34.80;;;19.90;;
24439;SDS011;12618;54.386;18.394;2023-11-19T02:56:58;32.90;;;20.50;;
24439;SDS011;12618;54.386;18.394;2023-11-19T02:59:32;36.20;;;21.90;;
24439;SDS011;12618;54.386;18.394;2023-11-19T03:02:10;36.50;;;21.30;;
24439;SDS011;12618;54.386;18.394;2023-11-19T03:04:43;41.10;;;24.10;;
24439;SDS011;12618;54.386;18.394;2023-11-19T03:07:17;40.60;;;24.30;;
24439;SDS011;12618;54.386;18.394;2023-11-19T03:09:49;39.30;;;22.60;;
24439;SDS011;12618;54.386;18.394;2023-11-19T03:12:21;37.50;;;22.50;;
24439;SDS011;12618;54.386;18.394;2023-11-19T03:14:52;38.30;;;23.00;;
24439;SDS011;12618;54.386;18.394;2023-11-19T03:17:24;37.30;;;23.30;;
24439;SDS011;12618;54.386;18.394;2023-11-19T03:19:56;35.20;;;21.70;;
24439;SDS011;12618;54.386;18.394;2023-11-19T03:22:28;38.70;;;23.70;;
24439;SDS011;12618;54.386;18.394;2023-11-19T03:24:59;38.30;;;22.90;;
24439;SDS011;12618;54.386;18.394;2023-11-19T03:27:31;38.20;;;23.20;;
24439;SDS011;12618;54.386;18.394;2023-11-19T03:30:03;36.20;;;21.70;;
24439;SDS011;12618;54.386;18.394;2023-11-19T03:32:36;39.30;;;21.20;;
24439;SDS011;12618;54.386;18.394;2023-11-19T03:35:08;34.30;;;20.50;;
24439;SDS011;12618;54.386;18.394;2023-11-19T03:37:40;27.40;;;15.40;;
24439;SDS011;12618;54.386;18.394;2023-11-19T03:40:12;36.60;;;21.30;;
24439;SDS011;12618;54.386;18.394;2023-11-19T03:42:47;36.10;;;20.90;;
24439;SDS011;12618;54.386;18.394;2023-11-19T03:45:19;36.80;;;21.00;;
24439;SDS011;12618;54.386;18.394;2023-11-19T03:47:50;38.70;;;21.30;;
24439;SDS011;12618;54.386;18.394;2023-11-19T03:50:23;36.30;;;21.80;;
24439;SDS011;12618;54.386;18.394;2023-11-19T03:52:54;33.60;;;20.00;;
24439;SDS011;12618;54.386;18.394;2023-11-19T03:55:26;36.80;;;21.10;;
24439;SDS011;12618;54.386;18.394;2023-11-19T03:57:58;34.90;;;20.70;;
24439;SDS011;12618;54.386;18.394;2023-11-19T04:00:29;36.10;;;21.60;;
24439;SDS011;12618;54.386;18.394;2023-11-19T04:03:01;38.90;;;23.20;;
24439;SDS011;12618;54.386;18.394;2023-11-19T04:08:06;54.00;;;31.00;;
24439;SDS011;12618;54.386;18.394;2023-11-19T04:10:38;41.10;;;23.80;;
24439;SDS011;12618;54.386;18.394;2023-11-19T04:13:10;43.90;;;24.20;;
24439;SDS011;12618;54.386;18.394;2023-11-19T04:15:41;43.90;;;26.20;;
24439;SDS011;12618;54.386;18.394;2023-11-19T04:18:14;39.00;;;23.10;;
24439;SDS011;12618;54.386;18.394;2023-11-19T04:20:46;46.40;;;26.20;;
24439;SDS011;12618;54.386;18.394;2023-11-19T04:23:18;45.30;;;25.20;;
24439;SDS011;12618;54.386;18.394;2023-11-19T04:25:49;47.50;;;25.30;;
24439;SDS011;12618;54.386;18.394;2023-11-19T04:28:21;48.20;;;25.60;;
24439;SDS011;12618;54.386;18.394;2023-11-19T04:30:53;48.10;;;25.60;;
24439;SDS011;12618;54.386;18.394;2023-11-19T04:33:27;47.30;;;26.10;;
24439;SDS011;12618;54.386;18.394;2023-11-19T04:35:59;47.20;;;25.60;;
24439;SDS011;12618;54.386;18.394;2023-11-19T04:38:30;43.60;;;25.20;;
24439;SDS011;12618;54.386;18.394;2023-11-19T04:41:02;47.40;;;26.00;;
24439;SDS011;12618;54.386;18.394;2023-11-19T04:43:36;47.00;;;26.30;;
24439;SDS011;12618;54.386;18.394;2023-11-19T04:46:11;48.00;;;26.20;;
24439;SDS011;12618;54.386;18.394;2023-11-19T04:48:43;45.50;;;25.30;;
24439;SDS011;12618;54.386;18.394;2023-11-19T04:51:15;51.60;;;27.00;;
24439;SDS011;12618;54.386;18.394;2023-11-19T04:53:46;47.30;;;26.30;;
24439;SDS011;12618;54.386;18.394;2023-11-19T04:56:18;45.30;;;25.40;;
24439;SDS011;12618;54.386;18.394;2023-11-19T04:58:51;53.20;;;28.20;;
24439;SDS011;12618;54.386;18.394;2023-11-19T05:01:22;45.30;;;25.60;;
24439;SDS011;12618;54.386;18.394;2023-11-19T05:03:55;41.40;;;23.70;;
24439;SDS011;12618;54.386;18.394;2023-11-19T05:06:31;52.10;;;26.50;;
24439;SDS011;12618;54.386;18.394;2023-11-19T05:09:03;50.30;;;26.30;;
24439;SDS011;12618;54.386;18.394;2023-11-19T05:11:41;49.50;;;27.10;;
24439;SDS011;12618;54.386;18.394;2023-11-19T05:14:16;48.90;;;25.20;;
24439;SDS011;12618;54.386;18.394;2023-11-19T05:16:48;55.40;;;29.40;;
24439;SDS011;12618;54.386;18.394;2023-11-19T05:19:20;49.20;;;25.40;;
24439;SDS011;12618;54.386;18.394;2023-11-19T05:21:52;48.00;;;25.00;;
24439;SDS011;12618;54.386;18.394;2023-11-19T05:24:24;47.00;;;23.80;;
24439;SDS011;12618;54.386;18.394;2023-11-19T05:26:55;44.30;;;23.90;;
24439;SDS011;12618;54.386;18.394;2023-11-19T05:29:27;35.70;;;21.00;;
24439;SDS011;12618;54.386;18.394;2023-11-19T05:32:00;35.90;;;21.00;;
24439;SDS011;12618;54.386;18.394;2023-11-19T05:34:31;35.20;;;20.20;;
24439;SDS011;12618;54.386;18.394;2023-11-19T05:37:03;33.10;;;19.80;;
24439;SDS011;12618;54.386;18.394;2023-11-19T05:39:37;38.80;;;21.30;;
24439;SDS011;12618;54.386;18.394;2023-11-19T05:42:08;32.90;;;19.60;;
24439;SDS011;12618;54.386;18.394;2023-11-19T05:44:41;36.00;;;20.50;;
24439;SDS011;12618;54.386;18.394;2023-11-19T05:47:12;35.80;;;20.00;;
24439;SDS011;12618;54.386;18.394;2023-11-19T05:49:44;37.40;;;21.50;;
24439;SDS011;12618;54.386;18.394;2023-11-19T05:52:16;38.10;;;22.50;;
24439;SDS011;12618;54.386;18.394;2023-11-19T05:55:20;38.80;;;21.30;;
24439;SDS011;12618;54.386;18.394;2023-11-19T05:57:51;36.40;;;20.50;;
24439;SDS011;12618;54.386;18.394;2023-11-19T06:00:23;36.10;;;21.00;;
24439;SDS011;12618;54.386;18.394;2023-11-19T06:02:55;37.40;;;20.90;;
24439;SDS011;12618;54.386;18.394;2023-11-19T06:05:27;38.40;;;22.10;;
24439;SDS011;12618;54.386;18.394;2023-11-19T06:07:58;43.20;;;22.00;;
24439;SDS011;12618;54.386;18.394;2023-11-19T06:10:30;41.40;;;23.20;;
24439;SDS011;12618;54.386;18.394;2023-11-19T06:13:04;39.50;;;21.50;;
24439;SDS011;12618;54.386;18.394;2023-11-19T06:15:36;38.20;;;21.80;;
24439;SDS011;12618;54.386;18.394;2023-11-19T06:18:08;41.00;;;22.40;;
24439;SDS011;12618;54.386;18.394;2023-11-19T06:20:41;40.50;;;21.60;;
24439;SDS011;12618;54.386;18.394;2023-11-19T06:23:14;36.70;;;21.30;;
24439;SDS011;12618;54.386;18.394;2023-11-19T06:25:46;35.30;;;21.00;;
24439;SDS011;12618;54.386;18.394;2023-11-19T06:28:17;40.20;;;23.10;;
24439;SDS011;12618;54.386;18.394;2023-11-19T06:30:49;37.80;;;21.70;;
24439;SDS011;12618;54.386;18.394;2023-11-19T06:33:20;36.60;;;21.00;;
24439;SDS011;12618;54.386;18.394;2023-11-19T06:35:53;37.10;;;20.60;;
24439;SDS011;12618;54.386;18.394;2023-11-19T06:38:26;33.40;;;19.50;;
24439;SDS011;12618;54.386;18.394;2023-11-19T06:40:57;34.10;;;20.10;;
24439;SDS011;12618;54.386;18.394;2023-11-19T06:43:29;34.90;;;19.20;;
24439;SDS011;12618;54.386;18.394;2023-11-19T06:46:16;34.90;;;19.20;;
24439;SDS011;12618;54.386;18.394;2023-11-19T06:48:49;34.60;;;19.50;;
24439;SDS011;12618;54.386;18.394;2023-11-19T06:51:20;35.00;;;19.40;;
24439;SDS011;12618;54.386;18.394;2023-11-19T06:53:52;34.90;;;19.70;;
24439;SDS011;12618;54.386;18.394;2023-11-19T06:56:24;35.80;;;19.30;;
24439;SDS011;12618;54.386;18.394;2023-11-19T06:58:56;34.00;;;19.40;;
24439;SDS011;12618;54.386;18.394;2023-11-19T07:01:27;33.30;;;19.00;;
24439;SDS011;12618;54.386;18.394;2023-11-19T07:04:00;34.50;;;19.30;;
24439;SDS011;12618;54.386;18.394;2023-11-19T07:06:33;32.80;;;19.70;;
24439;SDS011;12618;54.386;18.394;2023-11-19T07:09:06;36.10;;;20.20;;
24439;SDS011;12618;54.386;18.394;2023-11-19T07:11:41;35.20;;;19.30;;
24439;SDS011;12618;54.386;18.394;2023-11-19T07:14:13;33.70;;;20.50;;
24439;SDS011;12618;54.386;18.394;2023-11-19T07:16:45;35.00;;;20.20;;
24439;SDS011;12618;54.386;18.394;2023-11-19T07:19:17;36.40;;;20.20;;
24439;SDS011;12618;54.386;18.394;2023-11-19T07:21:49;36.20;;;21.20;;
24439;SDS011;12618;54.386;18.394;2023-11-19T07:24:20;40.40;;;22.20;;
24439;SDS011;12618;54.386;18.394;2023-11-19T07:26:52;37.30;;;22.10;;
24439;SDS011;12618;54.386;18.394;2023-11-19T07:29:25;38.00;;;22.00;;
24439;SDS011;12618;54.386;18.394;2023-11-19T07:32:00;37.00;;;22.80;;
24439;SDS011;12618;54.386;18.394;2023-11-19T07:34:33;38.00;;;21.90;;
24439;SDS011;12618;54.386;18.394;2023-11-19T07:37:05;38.50;;;21.80;;
24439;SDS011;12618;54.386;18.394;2023-11-19T07:39:37;35.20;;;21.80;;
24439;SDS011;12618;54.386;18.394;2023-11-19T07:42:12;35.10;;;20.80;;
24439;SDS011;12618;54.386;18.394;2023-11-19T07:44:44;34.00;;;21.40;;
24439;SDS011;12618;54.386;18.394;2023-11-19T07:47:16;35.00;;;21.00;;
24439;SDS011;12618;54.386;18.394;2023-11-19T07:49:48;33.10;;;20.30;;
24439;SDS011;12618;54.386;18.394;2023-11-19T07:52:19;32.30;;;20.20;;
24439;SDS011;12618;54.386;18.394;2023-11-19T07:54:53;34.90;;;20.40;;
24439;SDS011;12618;54.386;18.394;2023-11-19T07:57:25;32.20;;;20.30;;
24439;SDS011;12618;54.386;18.394;2023-11-19T08:00:01;30.60;;;19.40;;
24439;SDS011;12618;54.386;18.394;2023-11-19T08:02:34;31.60;;;19.80;;
24439;SDS011;12618;54.386;18.394;2023-11-19T08:05:06;32.40;;;19.70;;
24439;SDS011;12618;54.386;18.394;2023-11-19T08:07:38;34.30;;;20.00;;
24439;SDS011;12618;54.386;18.394;2023-11-19T08:10:10;32.80;;;20.50;;
24439;SDS011;12618;54.386;18.394;2023-11-19T08:12:42;29.50;;;19.50;;
24439;SDS011;12618;54.386;18.394;2023-11-19T08:15:14;31.40;;;19.80;;
24439;SDS011;12618;54.386;18.394;2023-11-19T08:18:02;33.00;;;21.50;;
24439;SDS011;12618;54.386;18.394;2023-11-19T08:20:34;33.30;;;21.10;;
24439;SDS011;12618;54.386;18.394;2023-11-19T08:23:06;31.80;;;20.30;;
24439;SDS011;12618;54.386;18.394;2023-11-19T08:25:38;31.20;;;20.30;;
24439;SDS011;12618;54.386;18.394;2023-11-19T08:28:10;35.20;;;21.30;;
24439;SDS011;12618;54.386;18.394;2023-11-19T08:30:42;35.70;;;21.90;;
24439;SDS011;12618;54.386;18.394;2023-11-19T08:33:15;37.50;;;22.20;;
24439;SDS011;12618;54.386;18.394;2023-11-19T08:35:48;34.50;;;21.10;;
24439;SDS011;12618;54.386;18.394;2023-11-19T08:38:20;35.60;;;20.50;;
24439;SDS011;12618;54.386;18.394;2023-11-19T08:40:55;32.60;;;20.20;;
24439;SDS011;12618;54.386;18.394;2023-11-19T08:43:31;31.80;;;20.30;;
24439;SDS011;12618;54.386;18.394;2023-11-19T08:46:03;31.90;;;20.20;;
24439;SDS011;12618;54.386;18.394;2023-11-19T08:48:35;32.50;;;20.30;;
24439;SDS011;12618;54.386;18.394;2023-11-19T08:51:07;33.10;;;20.30;;
24439;SDS011;12618;54.386;18.394;2023-11-19T08:53:39;31.60;;;20.40;;
24439;SDS011;12618;54.386;18.394;2023-11-19T08:56:10;31.60;;;20.30;;
24439;SDS011;12618;54.386;18.394;2023-11-19T08:58:42;32.30;;;20.00;;
24439;SDS011;12618;54.386;18.394;2023-11-19T09:01:13;34.60;;;20.10;;
24439;SDS011;12618;54.386;18.394;2023-11-19T09:03:45;32.00;;;19.90;;
24439;SDS011;12618;54.386;18.394;2023-11-19T09:06:17;32.40;;;20.30;;
24439;SDS011;12618;54.386;18.394;2023-11-19T09:08:49;33.20;;;20.50;;
24439;SDS011;12618;54.386;18.394;2023-11-19T09:11:21;33.70;;;20.90;;
24439;SDS011;12618;54.386;18.394;2023-11-19T09:13:52;32.60;;;21.00;;
24439;SDS011;12618;54.386;18.394;2023-11-19T09:16:24;34.00;;;20.50;;
24439;SDS011;12618;54.386;18.394;2023-11-19T09:18:57;32.30;;;20.70;;
24439;SDS011;12618;54.386;18.394;2023-11-19T09:24:02;34.20;;;21.10;;
24439;SDS011;12618;54.386;18.394;2023-11-19T09:26:34;32.50;;;20.50;;
24439;SDS011;12618;54.386;18.394;2023-11-19T09:29:07;31.70;;;19.50;;
24439;SDS011;12618;54.386;18.394;2023-11-19T09:31:39;33.10;;;20.00;;
24439;SDS011;12618;54.386;18.394;2023-11-19T09:34:11;32.70;;;19.30;;
24439;SDS011;12618;54.386;18.394;2023-11-19T09:36:43;31.20;;;19.50;;
24439;SDS011;12618;54.386;18.394;2023-11-19T09:39:16;31.70;;;18.90;;
24439;SDS011;12618;54.386;18.394;2023-11-19T09:41:49;31.20;;;20.00;;
24439;SDS011;12618;54.386;18.394;2023-11-19T09:44:21;32.10;;;19.20;;
24439;SDS011;12618;54.386;18.394;2023-11-19T09:46:53;36.80;;;22.50;;
24439;SDS011;12618;54.386;18.394;2023-11-19T09:49:25;34.20;;;21.70;;
24439;SDS011;12618;54.386;18.394;2023-11-19T09:52:01;38.80;;;25.00;;
24439;SDS011;12618;54.386;18.394;2023-11-19T09:54:34;34.10;;;22.30;;
24439;SDS011;12618;54.386;18.394;2023-11-19T09:57:08;35.60;;;21.70;;
24439;SDS011;12618;54.386;18.394;2023-11-19T09:59:42;35.80;;;21.90;;
24439;SDS011;12618;54.386;18.394;2023-11-19T10:02:14;34.80;;;21.40;;
24439;SDS011;12618;54.386;18.394;2023-11-19T10:04:47;36.20;;;23.20;;
24439;SDS011;12618;54.386;18.394;2023-11-19T10:07:22;38.40;;;23.30;;
24439;SDS011;12618;54.386;18.394;2023-11-19T10:09:57;40.00;;;25.30;;
24439;SDS011;12618;54.386;18.394;2023-11-19T10:12:29;40.50;;;24.70;;
24439;SDS011;12618;54.386;18.394;2023-11-19T10:15:01;38.20;;;24.20;;
24439;SDS011;12618;54.386;18.394;2023-11-19T10:17:33;38.70;;;24.20;;
24439;SDS011;12618;54.386;18.394;2023-11-19T10:22:59;40.60;;;25.10;;
24439;SDS011;12618;54.386;18.394;2023-11-19T10:25:40;40.30;;;24.20;;
24439;SDS011;12618;54.386;18.394;2023-11-19T10:28:14;39.20;;;24.60;;
24439;SDS011;12618;54.386;18.394;2023-11-19T10:30:49;40.30;;;24.90;;
24439;SDS011;12618;54.386;18.394;2023-11-19T10:33:21;41.30;;;25.60;;
24439;SDS011;12618;54.386;18.394;2023-11-19T10:35:53;39.90;;;24.70;;
24439;SDS011;12618;54.386;18.394;2023-11-19T10:38:30;42.80;;;26.10;;
24439;SDS011;12618;54.386;18.394;2023-11-19T10:41:05;44.80;;;26.50;;
24439;SDS011;12618;54.386;18.394;2023-11-19T10:43:44;42.90;;;25.10;;
24439;SDS011;12618;54.386;18.394;2023-11-19T10:46:16;43.20;;;25.20;;
24439;SDS011;12618;54.386;18.394;2023-11-19T10:48:52;42.20;;;25.90;;
24439;SDS011;12618;54.386;18.394;2023-11-19T10:51:26;42.70;;;25.90;;
24439;SDS011;12618;54.386;18.394;2023-11-19T10:54:06;47.10;;;27.20;;
24439;SDS011;12618;54.386;18.394;2023-11-19T10:56:38;46.70;;;27.70;;
24439;SDS011;12618;54.386;18.394;2023-11-19T10:59:14;48.70;;;27.50;;
24439;SDS011;12618;54.386;18.394;2023-11-19T11:01:53;50.50;;;29.90;;
24439;SDS011;12618;54.386;18.394;2023-11-19T11:04:27;50.20;;;30.00;;
24439;SDS011;12618;54.386;18.394;2023-11-19T11:07:04;48.20;;;27.20;;
24439;SDS011;12618;54.386;18.394;2023-11-19T11:09:38;47.60;;;28.00;;
24439;SDS011;12618;54.386;18.394;2023-11-19T11:12:11;50.50;;;28.80;;
24439;SDS011;12618;54.386;18.394;2023-11-19T11:14:44;51.50;;;30.30;;
24439;SDS011;12618;54.386;18.394;2023-11-19T11:17:17;52.70;;;30.00;;
24439;SDS011;12618;54.386;18.394;2023-11-19T11:19:51;52.10;;;28.80;;
24439;SDS011;12618;54.386;18.394;2023-11-19T11:22:23;55.30;;;31.00;;
24439;SDS011;12618;54.386;18.394;2023-11-19T11:39:57;55.30;;;31.90;;
24439;SDS011;12618;54.386;18.394;2023-11-19T11:42:32;56.20;;;31.20;;
24439;SDS011;12618;54.386;18.394;2023-11-19T11:45:08;55.70;;;30.20;;
24439;SDS011;12618;54.386;18.394;2023-11-19T11:50:17;58.20;;;31.60;;
24439;SDS011;12618;54.386;18.394;2023-11-19T11:55:51;64.20;;;33.40;;
24439;SDS011;12618;54.386;18.394;2023-11-19T11:58:30;56.50;;;31.30;;
24439;SDS011;12618;54.386;18.394;2023-11-19T12:01:05;59.00;;;32.20;;
24439;SDS011;12618;54.386;18.394;2023-11-19T12:03:43;56.30;;;30.50;;
24439;SDS011;12618;54.386;18.394;2023-11-19T12:06:14;63.50;;;32.70;;
24439;SDS011;12618;54.386;18.394;2023-11-19T12:08:51;60.50;;;32.20;;
24439;SDS011;12618;54.386;18.394;2023-11-19T12:11:33;56.90;;;30.40;;
24439;SDS011;12618;54.386;18.394;2023-11-19T12:14:06;63.50;;;32.90;;
24439;SDS011;12618;54.386;18.394;2023-11-19T12:16:40;60.60;;;30.90;;
24439;SDS011;12618;54.386;18.394;2023-11-19T12:19:12;61.70;;;33.10;;
24439;SDS011;12618;54.386;18.394;2023-11-19T12:21:44;58.90;;;31.30;;
24439;SDS011;12618;54.386;18.394;2023-11-19T12:24:16;59.30;;;31.80;;
24439;SDS011;12618;54.386;18.394;2023-11-19T12:26:48;57.60;;;31.60;;
24439;SDS011;12618;54.386;18.394;2023-11-19T12:29:21;61.20;;;33.30;;
24439;SDS011;12618;54.386;18.394;2023-11-19T12:31:54;59.40;;;31.60;;
24439;SDS011;12618;54.386;18.394;2023-11-19T12:34:26;64.50;;;32.80;;
24439;SDS011;12618;54.386;18.394;2023-11-19T12:36:58;59.80;;;31.80;;
24439;SDS011;12618;54.386;18.394;2023-11-19T12:39:32;59.70;;;31.20;;
24439;SDS011;12618;54.386;18.394;2023-11-19T12:42:04;58.60;;;31.20;;
24439;SDS011;12618;54.386;18.394;2023-11-19T12:44:36;60.80;;;32.20;;
24439;SDS011;12618;54.386;18.394;2023-11-19T12:47:08;61.40;;;31.90;;
24439;SDS011;12618;54.386;18.394;2023-11-19T12:49:42;60.10;;;32.60;;
24439;SDS011;12618;54.386;18.394;2023-11-19T12:52:14;64.10;;;33.00;;
24439;SDS011;12618;54.386;18.394;2023-11-19T12:54:48;69.60;;;34.20;;
24439;SDS011;12618;54.386;18.394;2023-11-19T12:57:35;65.60;;;34.20;;
24439;SDS011;12618;54.386;18.394;2023-11-19T13:00:18;67.30;;;33.40;;
24439;SDS011;12618;54.386;18.394;2023-11-19T13:02:54;64.10;;;33.80;;
24439;SDS011;12618;54.386;18.394;2023-11-19T13:05:31;63.60;;;33.30;;
24439;SDS011;12618;54.386;18.394;2023-11-19T13:08:13;65.30;;;34.30;;
24439;SDS011;12618;54.386;18.394;2023-11-19T13:13:19;66.10;;;34.80;;
24439;SDS011;12618;54.386;18.394;2023-11-19T13:16:01;67.50;;;35.40;;
24439;SDS011;12618;54.386;18.394;2023-11-19T13:18:38;63.70;;;32.20;;
24439;SDS011;12618;54.386;18.394;2023-11-19T13:21:12;63.40;;;33.60;;
24439;SDS011;12618;54.386;18.394;2023-11-19T13:23:46;63.00;;;33.30;;
24439;SDS011;12618;54.386;18.394;2023-11-19T13:26:19;68.30;;;36.20;;
24439;SDS011;12618;54.386;18.394;2023-11-19T13:28:51;71.70;;;35.80;;
24439;SDS011;12618;54.386;18.394;2023-11-19T13:31:22;68.10;;;36.10;;
24439;SDS011;12618;54.386;18.394;2023-11-19T13:33:55;72.60;;;36.30;;
24439;SDS011;12618;54.386;18.394;2023-11-19T13:36:28;75.00;;;37.20;;
24439;SDS011;12618;54.386;18.394;2023-11-19T13:38:59;68.60;;;35.20;;
24439;SDS011;12618;54.386;18.394;2023-11-19T13:41:31;72.30;;;37.20;;
24439;SDS011;12618;54.386;18.394;2023-11-19T13:44:03;70.30;;;35.60;;
24439;SDS011;12618;54.386;18.394;2023-11-19T13:46:35;72.60;;;36.10;;
24439;SDS011;12618;54.386;18.394;2023-11-19T13:49:09;92.60;;;49.60;;
24439;SDS011;12618;54.386;18.394;2023-11-19T13:51:41;84.60;;;42.10;;
24439;SDS011;12618;54.386;18.394;2023-11-19T13:54:13;72.70;;;37.40;;
24439;SDS011;12618;54.386;18.394;2023-11-19T13:56:45;73.30;;;37.80;;
24439;SDS011;12618;54.386;18.394;2023-11-19T13:59:17;70.40;;;37.10;;
24439;SDS011;12618;54.386;18.394;2023-11-19T14:01:49;69.80;;;35.60;;
24439;SDS011;12618;54.386;18.394;2023-11-19T14:04:21;75.10;;;39.20;;
24439;SDS011;12618;54.386;18.394;2023-11-19T14:06:53;156.80;;;76.60;;
24439;SDS011;12618;54.386;18.394;2023-11-19T14:09:27;99.70;;;45.70;;
24439;SDS011;12618;54.386;18.394;2023-11-19T14:14:34;73.20;;;36.00;;
24439;SDS011;12618;54.386;18.394;2023-11-19T14:17:06;79.60;;;37.40;;
24439;SDS011;12618;54.386;18.394;2023-11-19T14:19:42;70.20;;;35.00;;
24439;SDS011;12618;54.386;18.394;2023-11-19T14:22:14;73.60;;;35.20;;
24439;SDS011;12618;54.386;18.394;2023-11-19T14:24:48;73.00;;;35.30;;
24439;SDS011;12618;54.386;18.394;2023-11-19T14:27:20;72.60;;;35.80;;
24439;SDS011;12618;54.386;18.394;2023-11-19T14:29:51;70.90;;;35.00;;
24439;SDS011;12618;54.386;18.394;2023-11-19T14:32:25;72.80;;;35.60;;
24439;SDS011;12618;54.386;18.394;2023-11-19T14:34:57;73.50;;;35.20;;
24439;SDS011;12618;54.386;18.394;2023-11-19T14:37:30;68.30;;;34.20;;
24439;SDS011;12618;54.386;18.394;2023-11-19T14:40:04;73.40;;;36.00;;
24439;SDS011;12618;54.386;18.394;2023-11-19T14:42:37;153.40;;;68.70;;
24439;SDS011;12618;54.386;18.394;2023-11-19T14:45:12;217.00;;;95.10;;
24439;SDS011;12618;54.386;18.394;2023-11-19T14:47:44;109.30;;;48.30;;
24439;SDS011;12618;54.386;18.394;2023-11-19T14:54:05;67.40;;;33.70;;
24439;SDS011;12618;54.386;18.394;2023-11-19T14:56:37;93.20;;;39.70;;
24439;SDS011;12618;54.386;18.394;2023-11-19T14:59:10;63.70;;;29.20;;
24439;SDS011;12618;54.386;18.394;2023-11-19T15:01:41;78.30;;;36.20;;
24439;SDS011;12618;54.386;18.394;2023-11-19T15:04:16;86.30;;;39.70;;
24439;SDS011;12618;54.386;18.394;2023-11-19T15:06:49;72.40;;;35.60;;
24439;SDS011;12618;54.386;18.394;2023-11-19T15:09:21;91.30;;;39.80;;
24439;SDS011;12618;54.386;18.394;2023-11-19T15:11:56;67.80;;;32.40;;
24439;SDS011;12618;54.386;18.394;2023-11-19T15:14:29;74.60;;;34.40;;
24439;SDS011;12618;54.386;18.394;2023-11-19T15:17:02;86.60;;;35.10;;
24439;SDS011;12618;54.386;18.394;2023-11-19T15:19:34;92.60;;;36.90;;
24439;SDS011;12618;54.386;18.394;2023-11-19T15:22:08;80.60;;;35.10;;
24439;SDS011;12618;54.386;18.394;2023-11-19T15:24:42;79.90;;;35.20;;
24439;SDS011;12618;54.386;18.394;2023-11-19T15:27:16;82.70;;;35.90;;